sensor_id;sensor_type;location;lat;lon;timestamp;P1;durP1;ratioP1;P2;durP2;ratioP2
71763;SDS011;59602;52.142;5.408;2023-08-06T00:00:37;5.68;;;3.25;;
71763;SDS011;59602;52.142;5.408;2023-08-06T00:03:04;6.85;;;3.20;;
71763;SDS011;59602;52.142;5.408;2023-08-06T00:05:32;8.23;;;3.33;;
71763;SDS011;59602;52.142;5.408;2023-08-06T00:07:58;4.85;;;3.10;;
71763;SDS011;59602;52.142;5.408;2023-08-06T00:10:25;4.77;;;3.03;;
71763;SDS011;59602;52.142;5.408;2023-08-06T00:12:52;6.30;;;3.95;;
71763;SDS011;59602;52.142;5.408;2023-08-06T00:15:18;6.53;;;3.28;;
71763;SDS011;59602;52.142;5.408;2023-08-06T00:17:45;5.30;;;3.20;;
71763;SDS011;59602;52.142;5.408;2023-08-06T00:20:12;7.20;;;3.28;;
71763;SDS011;59602;52.142;5.408;2023-08-06T00:22:38;5.70;;;3.47;;
71763;SDS011;59602;52.142;5.408;2023-08-06T00:25:05;6.97;;;3.75;;
71763;SDS011;59602;52.142;5.408;2023-08-06T00:27:32;5.38;;;3.28;;
71763;SDS011;59602;52.142;5.408;2023-08-06T00:29:59;7.43;;;3.35;;
71763;SDS011;59602;52.142;5.408;2023-08-06T00:32:25;5.20;;;3.33;;
71763;SDS011;59602;52.142;5.408;2023-08-06T00:34:52;5.13;;;3.13;;
71763;SDS011;59602;52.142;5.408;2023-08-06T00:37:19;5.97;;;3.22;;
71763;SDS011;59602;52.142;5.408;2023-08-06T00:39:45;6.28;;;3.15;;
71763;SDS011;59602;52.142;5.408;2023-08-06T00:42:12;10.05;;;3.88;;
71763;SDS011;59602;52.142;5.408;2023-08-06T00:44:39;5.30;;;2.92;;
71763;SDS011;59602;52.142;5.408;2023-08-06T00:47:06;5.30;;;3.17;;
71763;SDS011;59602;52.142;5.408;2023-08-06T00:49:35;5.70;;;3.00;;
71763;SDS011;59602;52.142;5.408;2023-08-06T00:52:04;5.95;;;3.17;;
71763;SDS011;59602;52.142;5.408;2023-08-06T00:54:33;6.03;;;2.80;;
71763;SDS011;59602;52.142;5.408;2023-08-06T00:57:01;7.57;;;3.30;;
71763;SDS011;59602;52.142;5.408;2023-08-06T00:59:28;5.57;;;3.17;;
71763;SDS011;59602;52.142;5.408;2023-08-06T01:01:57;4.68;;;3.05;;
71763;SDS011;59602;52.142;5.408;2023-08-06T01:04:24;4.57;;;2.83;;
71763;SDS011;59602;52.142;5.408;2023-08-06T01:09:50;6.35;;;3.45;;
71763;SDS011;59602;52.142;5.408;2023-08-06T01:12:34;6.33;;;3.53;;
71763;SDS011;59602;52.142;5.408;2023-08-06T01:15:13;6.00;;;3.40;;
71763;SDS011;59602;52.142;5.408;2023-08-06T01:17:43;5.60;;;3.08;;
71763;SDS011;59602;52.142;5.408;2023-08-06T01:20:11;8.90;;;3.38;;
71763;SDS011;59602;52.142;5.408;2023-08-06T01:22:37;6.40;;;3.85;;
71763;SDS011;59602;52.142;5.408;2023-08-06T01:25:04;6.67;;;3.73;;
71763;SDS011;59602;52.142;5.408;2023-08-06T01:27:33;7.32;;;3.65;;
71763;SDS011;59602;52.142;5.408;2023-08-06T01:30:11;6.82;;;3.95;;
71763;SDS011;59602;52.142;5.408;2023-08-06T01:32:42;6.20;;;3.65;;
71763;SDS011;59602;52.142;5.408;2023-08-06T01:35:12;7.30;;;3.97;;
71763;SDS011;59602;52.142;5.408;2023-08-06T01:37:41;7.10;;;3.63;;
71763;SDS011;59602;52.142;5.408;2023-08-06T01:40:09;6.28;;;3.63;;
71763;SDS011;59602;52.142;5.408;2023-08-06T01:42:38;7.63;;;4.38;;
71763;SDS011;59602;52.142;5.408;2023-08-06T01:45:06;6.55;;;4.13;;
71763;SDS011;59602;52.142;5.408;2023-08-06T01:47:34;5.75;;;3.60;;
71763;SDS011;59602;52.142;5.408;2023-08-06T01:50:01;7.13;;;3.87;;
71763;SDS011;59602;52.142;5.408;2023-08-06T01:52:28;8.43;;;4.00;;
71763;SDS011;59602;52.142;5.408;2023-08-06T01:54:55;6.35;;;3.80;;
71763;SDS011;59602;52.142;5.408;2023-08-06T01:57:22;6.90;;;4.10;;
71763;SDS011;59602;52.142;5.408;2023-08-06T01:59:48;7.75;;;3.95;;
71763;SDS011;59602;52.142;5.408;2023-08-06T02:02:15;9.40;;;4.47;;
71763;SDS011;59602;52.142;5.408;2023-08-06T02:04:41;7.43;;;4.60;;
71763;SDS011;59602;52.142;5.408;2023-08-06T02:07:08;9.07;;;5.30;;
71763;SDS011;59602;52.142;5.408;2023-08-06T02:09:35;9.27;;;4.75;;
71763;SDS011;59602;52.142;5.408;2023-08-06T02:12:02;8.57;;;4.57;;
71763;SDS011;59602;52.142;5.408;2023-08-06T02:14:29;7.87;;;4.67;;
71763;SDS011;59602;52.142;5.408;2023-08-06T02:16:55;9.82;;;4.97;;
71763;SDS011;59602;52.142;5.408;2023-08-06T02:19:22;9.02;;;5.15;;
71763;SDS011;59602;52.142;5.408;2023-08-06T02:21:49;7.45;;;4.80;;
71763;SDS011;59602;52.142;5.408;2023-08-06T02:24:15;10.15;;;5.00;;
71763;SDS011;59602;52.142;5.408;2023-08-06T02:26:43;10.67;;;5.03;;
71763;SDS011;59602;52.142;5.408;2023-08-06T02:29:10;8.23;;;5.10;;
71763;SDS011;59602;52.142;5.408;2023-08-06T02:31:36;9.55;;;5.47;;
71763;SDS011;59602;52.142;5.408;2023-08-06T02:34:03;9.57;;;5.15;;
71763;SDS011;59602;52.142;5.408;2023-08-06T02:36:30;8.98;;;4.95;;
71763;SDS011;59602;52.142;5.408;2023-08-06T02:38:56;9.43;;;4.87;;
71763;SDS011;59602;52.142;5.408;2023-08-06T02:41:23;9.63;;;5.28;;
71763;SDS011;59602;52.142;5.408;2023-08-06T02:43:49;7.43;;;4.85;;
71763;SDS011;59602;52.142;5.408;2023-08-06T02:46:16;7.28;;;4.38;;
71763;SDS011;59602;52.142;5.408;2023-08-06T02:48:43;6.47;;;3.97;;
71763;SDS011;59602;52.142;5.408;2023-08-06T02:51:10;7.00;;;4.10;;
71763;SDS011;59602;52.142;5.408;2023-08-06T02:53:37;8.98;;;3.83;;
71763;SDS011;59602;52.142;5.408;2023-08-06T02:56:04;6.20;;;3.75;;
71763;SDS011;59602;52.142;5.408;2023-08-06T02:58:30;10.25;;;4.22;;
71763;SDS011;59602;52.142;5.408;2023-08-06T03:00:58;5.47;;;3.33;;
71763;SDS011;59602;52.142;5.408;2023-08-06T03:03:26;6.10;;;3.50;;
71763;SDS011;59602;52.142;5.408;2023-08-06T03:05:53;5.43;;;3.45;;
71763;SDS011;59602;52.142;5.408;2023-08-06T03:08:20;6.78;;;3.70;;
71763;SDS011;59602;52.142;5.408;2023-08-06T03:10:49;5.20;;;3.30;;
71763;SDS011;59602;52.142;5.408;2023-08-06T03:13:16;6.93;;;3.70;;
71763;SDS011;59602;52.142;5.408;2023-08-06T03:15:43;6.80;;;3.70;;
71763;SDS011;59602;52.142;5.408;2023-08-06T03:18:17;9.02;;;3.47;;
71763;SDS011;59602;52.142;5.408;2023-08-06T03:20:44;6.78;;;4.15;;
71763;SDS011;59602;52.142;5.408;2023-08-06T03:23:11;5.72;;;3.80;;
71763;SDS011;59602;52.142;5.408;2023-08-06T03:25:37;7.38;;;3.70;;
71763;SDS011;59602;52.142;5.408;2023-08-06T03:28:04;5.70;;;3.67;;
71763;SDS011;59602;52.142;5.408;2023-08-06T03:30:31;6.30;;;3.80;;
71763;SDS011;59602;52.142;5.408;2023-08-06T03:32:57;5.38;;;3.33;;
71763;SDS011;59602;52.142;5.408;2023-08-06T03:35:24;6.80;;;3.88;;
71763;SDS011;59602;52.142;5.408;2023-08-06T03:37:50;6.15;;;3.83;;
71763;SDS011;59602;52.142;5.408;2023-08-06T03:40:17;5.90;;;3.97;;
71763;SDS011;59602;52.142;5.408;2023-08-06T03:42:44;7.25;;;3.95;;
71763;SDS011;59602;52.142;5.408;2023-08-06T03:45:10;6.55;;;3.97;;
71763;SDS011;59602;52.142;5.408;2023-08-06T03:47:37;8.35;;;4.47;;
71763;SDS011;59602;52.142;5.408;2023-08-06T03:50:03;7.40;;;4.38;;
71763;SDS011;59602;52.142;5.408;2023-08-06T03:52:30;6.23;;;3.93;;
71763;SDS011;59602;52.142;5.408;2023-08-06T03:54:57;5.90;;;4.05;;
71763;SDS011;59602;52.142;5.408;2023-08-06T03:57:23;6.25;;;4.28;;
71763;SDS011;59602;52.142;5.408;2023-08-06T03:59:50;7.60;;;4.53;;
71763;SDS011;59602;52.142;5.408;2023-08-06T04:02:20;6.40;;;4.22;;
71763;SDS011;59602;52.142;5.408;2023-08-06T04:04:47;7.23;;;4.53;;
71763;SDS011;59602;52.142;5.408;2023-08-06T04:07:14;7.55;;;4.65;;
71763;SDS011;59602;52.142;5.408;2023-08-06T04:09:52;6.80;;;4.10;;
71763;SDS011;59602;52.142;5.408;2023-08-06T04:12:25;7.40;;;4.65;;
71763;SDS011;59602;52.142;5.408;2023-08-06T04:14:53;6.95;;;4.57;;
71763;SDS011;59602;52.142;5.408;2023-08-06T04:17:20;8.53;;;5.30;;
71763;SDS011;59602;52.142;5.408;2023-08-06T04:19:48;7.90;;;4.60;;
71763;SDS011;59602;52.142;5.408;2023-08-06T04:22:16;7.15;;;4.53;;
71763;SDS011;59602;52.142;5.408;2023-08-06T04:24:42;9.57;;;5.63;;
71763;SDS011;59602;52.142;5.408;2023-08-06T04:27:10;10.15;;;5.28;;
71763;SDS011;59602;52.142;5.408;2023-08-06T04:29:37;9.67;;;5.87;;
71763;SDS011;59602;52.142;5.408;2023-08-06T04:32:05;9.15;;;5.53;;
71763;SDS011;59602;52.142;5.408;2023-08-06T04:34:35;9.85;;;5.97;;
71763;SDS011;59602;52.142;5.408;2023-08-06T04:37:03;9.90;;;5.68;;
71763;SDS011;59602;52.142;5.408;2023-08-06T04:39:30;8.77;;;5.72;;
71763;SDS011;59602;52.142;5.408;2023-08-06T04:41:57;11.03;;;6.47;;
71763;SDS011;59602;52.142;5.408;2023-08-06T04:44:23;9.52;;;5.97;;
71763;SDS011;59602;52.142;5.408;2023-08-06T04:46:50;13.23;;;7.03;;
71763;SDS011;59602;52.142;5.408;2023-08-06T04:49:17;11.23;;;6.28;;
71763;SDS011;59602;52.142;5.408;2023-08-06T04:51:46;9.80;;;5.50;;
71763;SDS011;59602;52.142;5.408;2023-08-06T04:54:12;11.07;;;6.23;;
71763;SDS011;59602;52.142;5.408;2023-08-06T04:56:39;11.07;;;6.63;;
71763;SDS011;59602;52.142;5.408;2023-08-06T04:59:05;9.75;;;6.32;;
71763;SDS011;59602;52.142;5.408;2023-08-06T05:01:32;11.50;;;6.88;;
71763;SDS011;59602;52.142;5.408;2023-08-06T05:03:59;11.18;;;6.68;;
71763;SDS011;59602;52.142;5.408;2023-08-06T05:06:26;11.83;;;7.40;;
71763;SDS011;59602;52.142;5.408;2023-08-06T05:08:52;17.17;;;7.53;;
71763;SDS011;59602;52.142;5.408;2023-08-06T05:11:19;12.30;;;7.65;;
71763;SDS011;59602;52.142;5.408;2023-08-06T05:13:45;12.10;;;7.43;;
71763;SDS011;59602;52.142;5.408;2023-08-06T05:16:12;13.32;;;7.50;;
71763;SDS011;59602;52.142;5.408;2023-08-06T05:18:39;13.53;;;7.77;;
71763;SDS011;59602;52.142;5.408;2023-08-06T05:21:05;12.63;;;8.02;;
71763;SDS011;59602;52.142;5.408;2023-08-06T05:23:32;15.20;;;8.40;;
71763;SDS011;59602;52.142;5.408;2023-08-06T05:26:00;14.50;;;8.40;;
71763;SDS011;59602;52.142;5.408;2023-08-06T05:28:26;13.18;;;7.90;;
71763;SDS011;59602;52.142;5.408;2023-08-06T05:30:53;13.37;;;8.13;;
71763;SDS011;59602;52.142;5.408;2023-08-06T05:33:20;15.55;;;9.07;;
71763;SDS011;59602;52.142;5.408;2023-08-06T05:35:46;15.57;;;9.10;;
71763;SDS011;59602;52.142;5.408;2023-08-06T05:38:13;14.88;;;8.57;;
71763;SDS011;59602;52.142;5.408;2023-08-06T05:40:39;22.67;;;16.17;;
71763;SDS011;59602;52.142;5.408;2023-08-06T05:43:06;16.80;;;10.47;;
71763;SDS011;59602;52.142;5.408;2023-08-06T05:45:33;14.15;;;9.13;;
71763;SDS011;59602;52.142;5.408;2023-08-06T05:47:59;13.18;;;8.45;;
71763;SDS011;59602;52.142;5.408;2023-08-06T05:50:26;17.17;;;9.48;;
71763;SDS011;59602;52.142;5.408;2023-08-06T05:52:53;36.10;;;26.58;;
71763;SDS011;59602;52.142;5.408;2023-08-06T05:55:20;29.20;;;21.07;;
71763;SDS011;59602;52.142;5.408;2023-08-06T05:57:46;19.77;;;14.93;;
71763;SDS011;59602;52.142;5.408;2023-08-06T06:00:13;16.17;;;10.02;;
71763;SDS011;59602;52.142;5.408;2023-08-06T06:02:40;14.07;;;8.07;;
71763;SDS011;59602;52.142;5.408;2023-08-06T06:05:07;14.35;;;8.60;;
71763;SDS011;59602;52.142;5.408;2023-08-06T06:07:34;30.37;;;27.17;;
71763;SDS011;59602;52.142;5.408;2023-08-06T06:10:08;16.08;;;10.10;;
71763;SDS011;59602;52.142;5.408;2023-08-06T06:12:38;15.02;;;9.00;;
71763;SDS011;59602;52.142;5.408;2023-08-06T06:17:40;14.68;;;9.10;;
71763;SDS011;59602;52.142;5.408;2023-08-06T06:20:07;15.57;;;10.50;;
71763;SDS011;59602;52.142;5.408;2023-08-06T06:22:34;13.80;;;9.57;;
71763;SDS011;59602;52.142;5.408;2023-08-06T06:25:23;15.30;;;9.10;;
71763;SDS011;59602;52.142;5.408;2023-08-06T06:28:37;14.95;;;8.13;;
71763;SDS011;59602;52.142;5.408;2023-08-06T06:31:52;13.80;;;7.90;;
71763;SDS011;59602;52.142;5.408;2023-08-06T06:35:19;13.27;;;7.60;;
71763;SDS011;59602;52.142;5.408;2023-08-06T06:37:47;15.30;;;8.40;;
71763;SDS011;59602;52.142;5.408;2023-08-06T06:40:15;12.43;;;7.50;;
71763;SDS011;59602;52.142;5.408;2023-08-06T06:42:42;12.90;;;7.68;;
71763;SDS011;59602;52.142;5.408;2023-08-06T06:45:09;12.85;;;8.20;;
71763;SDS011;59602;52.142;5.408;2023-08-06T06:47:36;12.50;;;7.80;;
71763;SDS011;59602;52.142;5.408;2023-08-06T06:50:03;12.52;;;7.07;;
71763;SDS011;59602;52.142;5.408;2023-08-06T06:52:30;13.00;;;6.97;;
71763;SDS011;59602;52.142;5.408;2023-08-06T06:54:57;13.60;;;7.63;;
71763;SDS011;59602;52.142;5.408;2023-08-06T06:57:25;13.63;;;7.60;;
71763;SDS011;59602;52.142;5.408;2023-08-06T06:59:52;12.97;;;7.60;;
71763;SDS011;59602;52.142;5.408;2023-08-06T07:02:18;12.70;;;7.68;;
71763;SDS011;59602;52.142;5.408;2023-08-06T07:04:45;13.15;;;7.63;;
71763;SDS011;59602;52.142;5.408;2023-08-06T07:07:12;13.38;;;7.65;;
71763;SDS011;59602;52.142;5.408;2023-08-06T07:09:38;14.43;;;8.38;;
71763;SDS011;59602;52.142;5.408;2023-08-06T07:12:05;11.60;;;7.37;;
71763;SDS011;59602;52.142;5.408;2023-08-06T07:14:32;40.38;;;17.17;;
71763;SDS011;59602;52.142;5.408;2023-08-06T07:16:58;17.70;;;9.38;;
71763;SDS011;59602;52.142;5.408;2023-08-06T07:19:25;12.25;;;7.57;;
71763;SDS011;59602;52.142;5.408;2023-08-06T07:21:52;12.23;;;7.43;;
71763;SDS011;59602;52.142;5.408;2023-08-06T07:24:19;14.07;;;7.73;;
71763;SDS011;59602;52.142;5.408;2023-08-06T07:26:46;12.35;;;7.68;;
71763;SDS011;59602;52.142;5.408;2023-08-06T07:29:12;15.93;;;9.45;;
71763;SDS011;59602;52.142;5.408;2023-08-06T07:31:39;14.30;;;7.97;;
71763;SDS011;59602;52.142;5.408;2023-08-06T07:34:06;11.63;;;7.57;;
71763;SDS011;59602;52.142;5.408;2023-08-06T07:36:33;18.60;;;11.00;;
71763;SDS011;59602;52.142;5.408;2023-08-06T07:38:59;13.55;;;9.05;;
71763;SDS011;59602;52.142;5.408;2023-08-06T07:41:26;14.35;;;8.60;;
71763;SDS011;59602;52.142;5.408;2023-08-06T07:43:52;15.27;;;7.75;;
71763;SDS011;59602;52.142;5.408;2023-08-06T07:46:19;13.52;;;7.80;;
71763;SDS011;59602;52.142;5.408;2023-08-06T07:48:46;12.93;;;7.70;;
71763;SDS011;59602;52.142;5.408;2023-08-06T07:51:12;13.35;;;7.78;;
71763;SDS011;59602;52.142;5.408;2023-08-06T07:53:39;13.13;;;8.20;;
71763;SDS011;59602;52.142;5.408;2023-08-06T07:56:06;13.30;;;7.38;;
71763;SDS011;59602;52.142;5.408;2023-08-06T07:58:33;12.85;;;7.97;;
71763;SDS011;59602;52.142;5.408;2023-08-06T08:01:00;14.83;;;8.00;;
71763;SDS011;59602;52.142;5.408;2023-08-06T08:03:30;13.27;;;8.00;;
71763;SDS011;59602;52.142;5.408;2023-08-06T08:05:58;13.63;;;8.10;;
71763;SDS011;59602;52.142;5.408;2023-08-06T08:08:25;16.23;;;8.35;;
71763;SDS011;59602;52.142;5.408;2023-08-06T08:10:51;7.95;;;4.88;;
71763;SDS011;59602;52.142;5.408;2023-08-06T08:13:19;3.93;;;2.40;;
71763;SDS011;59602;52.142;5.408;2023-08-06T08:15:46;4.30;;;2.30;;
71763;SDS011;59602;52.142;5.408;2023-08-06T08:18:12;4.07;;;2.10;;
71763;SDS011;59602;52.142;5.408;2023-08-06T08:20:39;3.40;;;2.10;;
71763;SDS011;59602;52.142;5.408;2023-08-06T08:23:06;4.57;;;1.80;;
71763;SDS011;59602;52.142;5.408;2023-08-06T08:25:33;3.07;;;1.70;;
71763;SDS011;59602;52.142;5.408;2023-08-06T08:28:00;3.33;;;1.67;;
71763;SDS011;59602;52.142;5.408;2023-08-06T08:30:27;3.20;;;1.70;;
71763;SDS011;59602;52.142;5.408;2023-08-06T08:32:54;2.83;;;1.58;;
71763;SDS011;59602;52.142;5.408;2023-08-06T08:35:22;3.17;;;1.70;;
71763;SDS011;59602;52.142;5.408;2023-08-06T08:37:48;2.50;;;1.30;;
71763;SDS011;59602;52.142;5.408;2023-08-06T08:40:15;1.92;;;1.00;;
71763;SDS011;59602;52.142;5.408;2023-08-06T08:42:45;1.65;;;0.68;;
71763;SDS011;59602;52.142;5.408;2023-08-06T08:45:13;1.30;;;0.60;;
71763;SDS011;59602;52.142;5.408;2023-08-06T08:47:41;1.65;;;0.60;;
71763;SDS011;59602;52.142;5.408;2023-08-06T08:50:10;1.83;;;0.70;;
71763;SDS011;59602;52.142;5.408;2023-08-06T08:52:38;1.58;;;0.45;;
71763;SDS011;59602;52.142;5.408;2023-08-06T08:55:07;2.78;;;0.63;;
71763;SDS011;59602;52.142;5.408;2023-08-06T08:57:34;1.00;;;0.43;;
71763;SDS011;59602;52.142;5.408;2023-08-06T09:00:01;1.25;;;0.57;;
71763;SDS011;59602;52.142;5.408;2023-08-06T09:02:30;1.30;;;0.50;;
71763;SDS011;59602;52.142;5.408;2023-08-06T09:04:59;1.80;;;0.60;;
71763;SDS011;59602;52.142;5.408;2023-08-06T09:07:31;1.40;;;0.43;;
71763;SDS011;59602;52.142;5.408;2023-08-06T09:10:02;2.35;;;0.55;;
71763;SDS011;59602;52.142;5.408;2023-08-06T09:12:31;1.88;;;0.55;;
71763;SDS011;59602;52.142;5.408;2023-08-06T09:15:04;4.40;;;0.77;;
71763;SDS011;59602;52.142;5.408;2023-08-06T09:18:26;3.28;;;1.02;;
71763;SDS011;59602;52.142;5.408;2023-08-06T09:20:56;4.43;;;0.80;;
71763;SDS011;59602;52.142;5.408;2023-08-06T09:23:28;2.25;;;0.68;;
71763;SDS011;59602;52.142;5.408;2023-08-06T09:26:02;2.05;;;0.80;;
71763;SDS011;59602;52.142;5.408;2023-08-06T09:28:37;2.13;;;0.80;;
71763;SDS011;59602;52.142;5.408;2023-08-06T09:31:08;1.45;;;0.70;;
71763;SDS011;59602;52.142;5.408;2023-08-06T09:42:05;1.88;;;0.80;;
71763;SDS011;59602;52.142;5.408;2023-08-06T09:45:53;3.60;;;1.40;;
71763;SDS011;59602;52.142;5.408;2023-08-06T09:48:54;3.05;;;1.50;;
71763;SDS011;59602;52.142;5.408;2023-08-06T09:58:55;3.25;;;1.48;;
71763;SDS011;59602;52.142;5.408;2023-08-06T10:45:58;4.43;;;1.90;;
71763;SDS011;59602;52.142;5.408;2023-08-06T10:49:17;5.28;;;2.17;;
71763;SDS011;59602;52.142;5.408;2023-08-06T11:08:59;4.63;;;1.30;;
71763;SDS011;59602;52.142;5.408;2023-08-06T11:27:27;2.33;;;0.75;;
71763;SDS011;59602;52.142;5.408;2023-08-06T11:30:17;2.55;;;0.70;;
71763;SDS011;59602;52.142;5.408;2023-08-06T11:32:47;2.00;;;0.80;;
71763;SDS011;59602;52.142;5.408;2023-08-06T11:35:17;3.30;;;0.60;;
71763;SDS011;59602;52.142;5.408;2023-08-06T11:37:47;4.63;;;0.93;;
71763;SDS011;59602;52.142;5.408;2023-08-06T11:40:14;2.47;;;0.65;;
71763;SDS011;59602;52.142;5.408;2023-08-06T11:42:58;3.58;;;0.65;;
71763;SDS011;59602;52.142;5.408;2023-08-06T11:45:39;5.00;;;0.90;;
71763;SDS011;59602;52.142;5.408;2023-08-06T11:48:07;2.72;;;0.60;;
71763;SDS011;59602;52.142;5.408;2023-08-06T11:50:36;4.15;;;0.80;;
71763;SDS011;59602;52.142;5.408;2023-08-06T11:53:22;2.85;;;0.70;;
71763;SDS011;59602;52.142;5.408;2023-08-06T11:55:56;2.85;;;0.80;;
71763;SDS011;59602;52.142;5.408;2023-08-06T11:58:27;4.00;;;0.67;;
71763;SDS011;59602;52.142;5.408;2023-08-06T12:01:13;2.28;;;0.80;;
71763;SDS011;59602;52.142;5.408;2023-08-06T12:03:41;4.15;;;0.77;;
71763;SDS011;59602;52.142;5.408;2023-08-06T12:06:08;2.05;;;0.60;;
71763;SDS011;59602;52.142;5.408;2023-08-06T12:09:00;4.18;;;0.73;;
71763;SDS011;59602;52.142;5.408;2023-08-06T12:11:29;3.70;;;0.60;;
71763;SDS011;59602;52.142;5.408;2023-08-06T12:13:57;3.65;;;0.57;;
71763;SDS011;59602;52.142;5.408;2023-08-06T12:16:26;2.25;;;0.60;;
71763;SDS011;59602;52.142;5.408;2023-08-06T12:18:54;3.33;;;0.55;;
71763;SDS011;59602;52.142;5.408;2023-08-06T12:21:21;2.35;;;0.60;;
71763;SDS011;59602;52.142;5.408;2023-08-06T12:24:10;1.63;;;0.30;;
71763;SDS011;59602;52.142;5.408;2023-08-06T12:26:39;2.50;;;0.60;;
71763;SDS011;59602;52.142;5.408;2023-08-06T12:29:07;2.33;;;0.40;;
71763;SDS011;59602;52.142;5.408;2023-08-06T12:31:59;2.20;;;0.40;;
71763;SDS011;59602;52.142;5.408;2023-08-06T12:34:28;2.00;;;0.55;;
71763;SDS011;59602;52.142;5.408;2023-08-06T12:37:08;2.63;;;0.53;;
71763;SDS011;59602;52.142;5.408;2023-08-06T12:39:36;3.65;;;0.55;;
71763;SDS011;59602;52.142;5.408;2023-08-06T12:42:04;3.55;;;0.52;;
71763;SDS011;59602;52.142;5.408;2023-08-06T12:44:35;4.55;;;0.40;;
71763;SDS011;59602;52.142;5.408;2023-08-06T12:47:02;2.95;;;0.45;;
71763;SDS011;59602;52.142;5.408;2023-08-06T12:49:29;2.73;;;0.40;;
71763;SDS011;59602;52.142;5.408;2023-08-06T12:51:57;3.00;;;0.70;;
71763;SDS011;59602;52.142;5.408;2023-08-06T12:54:30;2.58;;;0.55;;
71763;SDS011;59602;52.142;5.408;2023-08-06T12:57:21;2.42;;;0.50;;
71763;SDS011;59602;52.142;5.408;2023-08-06T13:00:15;4.05;;;0.52;;
71763;SDS011;59602;52.142;5.408;2023-08-06T13:13:48;4.18;;;0.60;;
71763;SDS011;59602;52.142;5.408;2023-08-06T13:16:42;1.90;;;0.82;;
71763;SDS011;59602;52.142;5.408;2023-08-06T13:19:38;3.07;;;0.60;;
71763;SDS011;59602;52.142;5.408;2023-08-06T13:25:46;2.33;;;0.55;;
71763;SDS011;59602;52.142;5.408;2023-08-06T13:28:12;2.15;;;0.75;;
71763;SDS011;59602;52.142;5.408;2023-08-06T13:30:45;3.38;;;0.90;;
71763;SDS011;59602;52.142;5.408;2023-08-06T13:33:11;4.27;;;1.30;;
71763;SDS011;59602;52.142;5.408;2023-08-06T13:35:38;3.30;;;0.90;;
71763;SDS011;59602;52.142;5.408;2023-08-06T13:38:05;2.42;;;0.65;;
71763;SDS011;59602;52.142;5.408;2023-08-06T13:40:33;3.80;;;0.73;;
71763;SDS011;59602;52.142;5.408;2023-08-06T13:51:01;2.95;;;0.57;;
71763;SDS011;59602;52.142;5.408;2023-08-06T13:58:13;3.58;;;0.60;;
71763;SDS011;59602;52.142;5.408;2023-08-06T14:31:51;3.42;;;0.80;;
71763;SDS011;59602;52.142;5.408;2023-08-06T14:42:08;2.50;;;0.87;;
71763;SDS011;59602;52.142;5.408;2023-08-06T14:45:03;2.75;;;0.93;;
71763;SDS011;59602;52.142;5.408;2023-08-06T14:48:03;4.82;;;1.20;;
71763;SDS011;59602;52.142;5.408;2023-08-06T14:51:13;2.85;;;0.82;;
71763;SDS011;59602;52.142;5.408;2023-08-06T14:54:18;2.47;;;0.80;;
71763;SDS011;59602;52.142;5.408;2023-08-06T14:57:18;2.53;;;0.70;;
71763;SDS011;59602;52.142;5.408;2023-08-06T15:00:37;2.75;;;0.80;;
71763;SDS011;59602;52.142;5.408;2023-08-06T15:03:07;2.22;;;0.75;;
71763;SDS011;59602;52.142;5.408;2023-08-06T15:06:29;1.77;;;0.60;;
71763;SDS011;59602;52.142;5.408;2023-08-06T15:08:58;2.13;;;0.70;;
71763;SDS011;59602;52.142;5.408;2023-08-06T15:11:36;3.10;;;0.50;;
71763;SDS011;59602;52.142;5.408;2023-08-06T15:14:24;3.53;;;0.45;;
71763;SDS011;59602;52.142;5.408;2023-08-06T15:21:01;4.45;;;0.43;;
71763;SDS011;59602;52.142;5.408;2023-08-06T15:24:25;1.92;;;0.55;;
71763;SDS011;59602;52.142;5.408;2023-08-06T15:27:37;1.67;;;0.33;;
71763;SDS011;59602;52.142;5.408;2023-08-06T15:30:30;2.00;;;0.60;;
71763;SDS011;59602;52.142;5.408;2023-08-06T15:33:23;2.13;;;0.20;;
71763;SDS011;59602;52.142;5.408;2023-08-06T15:35:53;1.63;;;0.28;;
71763;SDS011;59602;52.142;5.408;2023-08-06T15:38:20;1.20;;;0.20;;
71763;SDS011;59602;52.142;5.408;2023-08-06T15:40:47;1.83;;;0.20;;
71763;SDS011;59602;52.142;5.408;2023-08-06T15:43:14;4.68;;;0.22;;
71763;SDS011;59602;52.142;5.408;2023-08-06T15:45:41;2.88;;;0.20;;
71763;SDS011;59602;52.142;5.408;2023-08-06T15:48:38;2.80;;;0.30;;
71763;SDS011;59602;52.142;5.408;2023-08-06T15:51:31;4.43;;;1.00;;
71763;SDS011;59602;52.142;5.408;2023-08-06T15:54:49;4.97;;;0.20;;
71763;SDS011;59602;52.142;5.408;2023-08-06T15:57:37;3.00;;;0.20;;
71763;SDS011;59602;52.142;5.408;2023-08-06T16:00:28;2.50;;;0.15;;
71763;SDS011;59602;52.142;5.408;2023-08-06T16:03:19;3.45;;;0.10;;
71763;SDS011;59602;52.142;5.408;2023-08-06T16:06:20;4.40;;;0.30;;
71763;SDS011;59602;52.142;5.408;2023-08-06T16:09:04;1.93;;;0.10;;
71763;SDS011;59602;52.142;5.408;2023-08-06T16:11:38;4.43;;;0.20;;
71763;SDS011;59602;52.142;5.408;2023-08-06T16:14:33;3.50;;;0.13;;
71763;SDS011;59602;52.142;5.408;2023-08-06T16:17:05;4.30;;;0.35;;
71763;SDS011;59602;52.142;5.408;2023-08-06T16:19:32;2.85;;;0.15;;
71763;SDS011;59602;52.142;5.408;2023-08-06T16:26:04;5.97;;;0.30;;
71763;SDS011;59602;52.142;5.408;2023-08-06T16:28:33;6.30;;;0.20;;
71763;SDS011;59602;52.142;5.408;2023-08-06T16:31:00;3.63;;;0.30;;
71763;SDS011;59602;52.142;5.408;2023-08-06T16:33:29;4.53;;;0.43;;
71763;SDS011;59602;52.142;5.408;2023-08-06T16:35:55;5.40;;;0.20;;
71763;SDS011;59602;52.142;5.408;2023-08-06T16:38:25;3.67;;;0.25;;
71763;SDS011;59602;52.142;5.408;2023-08-06T16:41:05;3.63;;;0.20;;
71763;SDS011;59602;52.142;5.408;2023-08-06T16:43:36;5.88;;;0.40;;
71763;SDS011;59602;52.142;5.408;2023-08-06T16:46:06;2.60;;;0.20;;
71763;SDS011;59602;52.142;5.408;2023-08-06T16:48:54;4.43;;;0.20;;
71763;SDS011;59602;52.142;5.408;2023-08-06T16:51:35;3.75;;;0.20;;
71763;SDS011;59602;52.142;5.408;2023-08-06T16:54:01;4.40;;;0.13;;
71763;SDS011;59602;52.142;5.408;2023-08-06T16:56:28;3.95;;;0.20;;
71763;SDS011;59602;52.142;5.408;2023-08-06T16:58:56;1.70;;;0.20;;
71763;SDS011;59602;52.142;5.408;2023-08-06T17:01:27;2.67;;;0.20;;
71763;SDS011;59602;52.142;5.408;2023-08-06T17:03:54;2.42;;;0.25;;
71763;SDS011;59602;52.142;5.408;2023-08-06T17:06:21;1.63;;;0.10;;
71763;SDS011;59602;52.142;5.408;2023-08-06T17:08:50;3.33;;;0.25;;
71763;SDS011;59602;52.142;5.408;2023-08-06T17:11:19;4.18;;;0.50;;
71763;SDS011;59602;52.142;5.408;2023-08-06T17:14:19;3.70;;;0.20;;
71763;SDS011;59602;52.142;5.408;2023-08-06T17:16:48;3.40;;;0.20;;
71763;SDS011;59602;52.142;5.408;2023-08-06T17:19:20;1.90;;;0.10;;
71763;SDS011;59602;52.142;5.408;2023-08-06T17:21:47;3.63;;;0.13;;
71763;SDS011;59602;52.142;5.408;2023-08-06T17:24:13;2.67;;;0.10;;
71763;SDS011;59602;52.142;5.408;2023-08-06T17:26:40;3.30;;;0.20;;
71763;SDS011;59602;52.142;5.408;2023-08-06T17:29:08;3.67;;;0.17;;
71763;SDS011;59602;52.142;5.408;2023-08-06T17:31:35;3.70;;;0.50;;
71763;SDS011;59602;52.142;5.408;2023-08-06T17:34:39;3.30;;;0.20;;
71763;SDS011;59602;52.142;5.408;2023-08-06T17:37:46;4.45;;;0.20;;
71763;SDS011;59602;52.142;5.408;2023-08-06T17:40:20;3.30;;;0.30;;
71763;SDS011;59602;52.142;5.408;2023-08-06T17:42:49;5.03;;;0.73;;
71763;SDS011;59602;52.142;5.408;2023-08-06T17:48:51;5.75;;;0.35;;
71763;SDS011;59602;52.142;5.408;2023-08-06T17:51:52;3.22;;;0.30;;
71763;SDS011;59602;52.142;5.408;2023-08-06T17:57:13;3.22;;;0.30;;
71763;SDS011;59602;52.142;5.408;2023-08-06T17:59:40;3.05;;;0.20;;
71763;SDS011;59602;52.142;5.408;2023-08-06T18:02:09;5.78;;;0.73;;
71763;SDS011;59602;52.142;5.408;2023-08-06T18:04:36;2.60;;;0.22;;
71763;SDS011;59602;52.142;5.408;2023-08-06T18:07:05;2.53;;;0.20;;
71763;SDS011;59602;52.142;5.408;2023-08-06T18:09:36;4.22;;;0.30;;
71763;SDS011;59602;52.142;5.408;2023-08-06T18:12:03;3.78;;;0.28;;